createdAt,value
2023-05-05T00:00:59.860Z,97849.38
2023-05-05T00:03:27.166Z,97859.31
2023-05-05T00:05:54.714Z,97858.03
2023-05-05T00:08:22.683Z,97801.13
2023-05-05T00:10:53.110Z,97865.16
2023-05-05T00:13:20.712Z,97865.16
2023-05-05T00:15:49.432Z,97854.72
2023-05-05T00:18:17.950Z,97861.44
2023-05-05T00:20:47.430Z,97827.91
2023-05-05T00:23:19.081Z,97849.16
2023-05-05T00:25:48.119Z,97851.59
2023-05-05T00:28:14.824Z,97844.38
2023-05-05T00:30:41.814Z,97852.09
2023-05-05T00:33:08.821Z,97841.34
2023-05-05T00:35:35.531Z,97842.66
2023-05-05T00:38:03.120Z,97838.84
2023-05-05T00:40:30.077Z,97821.47
2023-05-05T00:42:56.779Z,97834.81
2023-05-05T00:45:23.618Z,97838.84
2023-05-05T00:48:01.532Z,97838.50
2023-05-05T00:50:30.840Z,97837.31
2023-05-05T00:53:06.132Z,97830.91
2023-05-05T00:55:34.923Z,97830.88
2023-05-05T00:58:04.478Z,97826.41
2023-05-05T01:00:31.912Z,97831.00
2023-05-05T01:02:59.619Z,97833.09
2023-05-05T01:05:31.705Z,97820.09
2023-05-05T01:08:17.281Z,97829.13
2023-05-05T01:10:58.878Z,97831.69
2023-05-05T01:13:45.423Z,97823.66
2023-05-05T01:16:38.220Z,97829.13
2023-05-05T01:19:04.913Z,97822.41
2023-05-05T01:21:38.774Z,97827.91
2023-05-05T01:24:33.339Z,97828.72
2023-05-05T01:27:05.684Z,97815.19
2023-05-05T01:30:12.609Z,97794.41
2023-05-05T01:32:47.362Z,97818.63
2023-05-05T01:35:20.510Z,97814.09
2023-05-05T01:38:03.226Z,97816.72
2023-05-05T01:40:37.007Z,97814.91
2023-05-05T01:43:05.980Z,97823.03
2023-05-05T01:45:35.945Z,97814.59
2023-05-05T01:48:05.471Z,97814.91
2023-05-05T01:50:32.350Z,97813.50
2023-05-05T01:52:59.714Z,97798.00
2023-05-05T01:55:28.671Z,97820.66
2023-05-05T01:57:58.842Z,97824.66
2023-05-05T02:00:27.259Z,97815.91
2023-05-05T02:02:59.963Z,97827.81
2023-05-05T02:05:28.270Z,97794.88
2023-05-05T02:07:58.162Z,97809.47
2023-05-05T02:10:25.226Z,97820.81
2023-05-05T02:12:53.433Z,97818.63
2023-05-05T02:15:22.164Z,97826.03
2023-05-05T02:17:53.106Z,97825.09
2023-05-05T02:20:20.852Z,97823.13
2023-05-05T02:22:48.057Z,97833.00
2023-05-05T02:25:15.010Z,97821.31
2023-05-05T02:27:44.498Z,97823.81
2023-05-05T02:30:18.445Z,97820.44
2023-05-05T02:32:53.825Z,97818.47
2023-05-05T02:35:24.408Z,97821.94
2023-05-05T02:37:59.954Z,97820.22
2023-05-05T02:40:30.611Z,97815.13
2023-05-05T02:43:01.225Z,97821.34
2023-05-05T02:45:28.710Z,97804.66
2023-05-05T02:47:55.570Z,97819.53
2023-05-05T02:50:22.225Z,97828.16
2023-05-05T02:52:49.118Z,97816.88
2023-05-05T02:55:16.164Z,97797.41
2023-05-05T02:57:50.176Z,97822.41
2023-05-05T03:00:35.638Z,97823.56
2023-05-05T03:03:21.156Z,97809.00
2023-05-05T03:05:57.231Z,97813.09
2023-05-05T03:08:30.269Z,97812.78
2023-05-05T03:11:08.417Z,97809.88
2023-05-05T03:13:36.849Z,97810.22
2023-05-05T03:16:06.974Z,97789.06
2023-05-05T03:18:37.834Z,97802.44
2023-05-05T03:21:08.882Z,97809.88
2023-05-05T03:23:36.437Z,97806.28
2023-05-05T03:26:03.378Z,97802.22
2023-05-05T03:28:30.228Z,97809.50
2023-05-05T03:30:57.150Z,97798.25
2023-05-05T03:33:23.837Z,97822.50
2023-05-05T03:35:50.577Z,97811.66
2023-05-05T03:38:17.971Z,97816.94
2023-05-05T03:40:45.009Z,97783.22
2023-05-05T03:43:12.278Z,97824.09
2023-05-05T03:45:39.111Z,97815.25
2023-05-05T03:48:06.618Z,97802.28
2023-05-05T03:50:33.469Z,97818.81
2023-05-05T03:53:00.136Z,97818.41
2023-05-05T03:55:26.905Z,97815.28
2023-05-05T03:57:53.540Z,97815.41
2023-05-05T04:00:20.534Z,97802.16
2023-05-05T04:02:47.339Z,97814.88
2023-05-05T04:05:17.330Z,97820.59
2023-05-05T04:07:44.046Z,97817.53
2023-05-05T04:10:11.025Z,97809.28
2023-05-05T04:12:37.797Z,97810.94
2023-05-05T04:15:04.969Z,97805.81
2023-05-05T04:17:31.676Z,97804.66
2023-05-05T04:19:58.444Z,97803.97
2023-05-05T04:22:25.094Z,97802.19
2023-05-05T04:24:52.029Z,97792.66
2023-05-05T04:27:18.693Z,97800.41
2023-05-05T04:29:45.343Z,97802.72
2023-05-05T04:32:12.045Z,97798.63
2023-05-05T04:34:38.715Z,97802.63
2023-05-05T04:37:05.520Z,97807.91
2023-05-05T04:39:32.173Z,97813.22
2023-05-05T04:41:58.843Z,97817.22
2023-05-05T04:44:25.914Z,97812.88
2023-05-05T04:46:52.796Z,97815.34
2023-05-05T04:49:19.546Z,97821.00
2023-05-05T04:51:46.935Z,97833.53
2023-05-05T04:54:13.704Z,97835.78
2023-05-05T04:56:40.992Z,97823.47
2023-05-05T04:59:07.779Z,97837.38
2023-05-05T05:01:36.894Z,97835.41
2023-05-05T05:04:05.251Z,97831.28
2023-05-05T05:06:32.451Z,97830.13
2023-05-05T05:08:59.064Z,97834.81
2023-05-05T05:11:25.859Z,97833.69
2023-05-05T05:13:53.267Z,97826.94
2023-05-05T05:16:20.221Z,97826.06
2023-05-05T05:18:47.050Z,97832.78
2023-05-05T05:21:13.778Z,97837.44
2023-05-05T05:23:40.673Z,97834.84
2023-05-05T05:26:07.482Z,97831.44
2023-05-05T05:28:34.135Z,97831.66
2023-05-05T05:31:00.842Z,97831.06
2023-05-05T05:33:28.558Z,97814.31
2023-05-05T05:35:55.223Z,97830.06
2023-05-05T05:38:22.065Z,97831.47
2023-05-05T05:40:48.704Z,97828.94
2023-05-05T05:43:16.423Z,97826.31
2023-05-05T05:45:43.304Z,97836.25
2023-05-05T05:48:10.180Z,97840.91
2023-05-05T05:50:36.872Z,97840.13
2023-05-05T05:53:03.819Z,97831.34
2023-05-05T05:55:30.690Z,97840.09
2023-05-05T05:57:57.346Z,97836.97
2023-05-05T06:00:24.464Z,97845.03
2023-05-05T06:02:51.894Z,97832.25
2023-05-05T06:05:18.705Z,97843.75
2023-05-05T06:07:46.955Z,97842.19
2023-05-05T06:10:26.680Z,97846.63
2023-05-05T06:12:55.058Z,97845.03
2023-05-05T06:15:21.963Z,97841.47
2023-05-05T06:17:48.686Z,97832.78
2023-05-05T06:20:15.922Z,97832.41
2023-05-05T06:22:42.923Z,97843.09
2023-05-05T06:25:09.789Z,97838.28
2023-05-05T06:27:36.641Z,97837.16
2023-05-05T06:30:04.593Z,97842.84
2023-05-05T06:32:31.487Z,97837.78
2023-05-05T06:34:59.432Z,97837.16
2023-05-05T06:37:27.538Z,97846.66
2023-05-05T06:39:54.223Z,97839.47
2023-05-05T06:42:20.930Z,97834.09
2023-05-05T06:44:47.633Z,97844.56
2023-05-05T06:47:14.274Z,97853.88
2023-05-05T06:49:41.002Z,97858.94
2023-05-05T06:52:08.511Z,97856.25
2023-05-05T06:54:35.266Z,97841.63
2023-05-05T06:57:02.068Z,97841.38
2023-05-05T06:59:28.951Z,97843.25
2023-05-05T07:01:56.576Z,97849.50
2023-05-05T07:04:23.417Z,97845.31
2023-05-05T07:06:50.096Z,97843.13
2023-05-05T07:09:17.619Z,97839.84
2023-05-05T07:11:44.502Z,97842.59
2023-05-05T07:14:11.401Z,97833.44
2023-05-05T07:16:38.589Z,97828.59
2023-05-05T07:19:08.128Z,97828.31
2023-05-05T07:21:35.242Z,97828.31
2023-05-05T07:24:03.421Z,97828.53
2023-05-05T07:26:30.235Z,97827.28
2023-05-05T07:28:58.870Z,97840.53
2023-05-05T07:31:26.821Z,97848.22
2023-05-05T07:33:53.916Z,97813.28
2023-05-05T07:36:20.946Z,97803.06
2023-05-05T07:38:47.701Z,97830.19
2023-05-05T07:41:14.506Z,97829.53
2023-05-05T07:43:44.194Z,97823.41
2023-05-05T07:46:11.377Z,97824.84
2023-05-05T07:48:39.291Z,97814.72
2023-05-05T07:51:06.085Z,97773.56
2023-05-05T07:53:32.938Z,97827.91
2023-05-05T07:55:59.685Z,97820.38
2023-05-05T07:58:26.453Z,97832.72
2023-05-05T08:00:53.125Z,97828.69
2023-05-05T08:03:24.664Z,97839.81
2023-05-05T08:05:54.358Z,97824.84
2023-05-05T08:08:25.087Z,97836.22
2023-05-05T08:10:53.370Z,97833.88
2023-05-05T08:13:20.473Z,97787.03
2023-05-05T08:15:47.563Z,97833.50
2023-05-05T08:18:15.017Z,97827.06
2023-05-05T08:20:41.852Z,97824.44
2023-05-05T08:23:08.816Z,97819.94
2023-05-05T08:25:35.605Z,97834.63
2023-05-05T08:28:02.485Z,97828.75
2023-05-05T08:30:29.371Z,97831.41
2023-05-05T08:32:56.711Z,97838.41
2023-05-05T08:35:23.493Z,97831.97
2023-05-05T08:37:51.671Z,97846.66
2023-05-05T08:40:21.156Z,97838.88
2023-05-05T08:42:48.079Z,97846.31
2023-05-05T08:45:15.248Z,97848.06
2023-05-05T08:47:43.511Z,97843.38
2023-05-05T08:50:11.432Z,97840.19
2023-05-05T08:52:45.916Z,97837.78
2023-05-05T08:55:12.709Z,97844.22
2023-05-05T08:57:52.741Z,97829.63
2023-05-05T09:00:20.689Z,97831.41
2023-05-05T09:02:48.116Z,97833.47
2023-05-05T09:05:15.255Z,97831.28
2023-05-05T09:07:43.849Z,97817.44
2023-05-05T09:10:11.999Z,97828.59
2023-05-05T09:12:42.620Z,97839.16
2023-05-05T09:15:11.883Z,97830.72
2023-05-05T09:17:39.659Z,97835.13
2023-05-05T09:20:15.534Z,97837.44
2023-05-05T09:22:47.433Z,97829.91
2023-05-05T09:25:16.493Z,97851.31
2023-05-05T09:27:48.150Z,97805.34
2023-05-05T09:30:17.793Z,97821.56
2023-05-05T09:32:47.896Z,97836.66
2023-05-05T09:35:15.164Z,97828.69
2023-05-05T09:37:42.521Z,97842.22
2023-05-05T09:40:10.098Z,97830.97
2023-05-05T09:42:38.143Z,97830.09
2023-05-05T09:45:26.887Z,97841.75
2023-05-05T09:47:59.162Z,97832.72
2023-05-05T09:50:30.959Z,97841.03
2023-05-05T09:53:02.180Z,97830.50
2023-05-05T09:55:31.593Z,97834.97
2023-05-05T09:58:18.083Z,97841.63
2023-05-05T10:00:44.915Z,97837.59
2023-05-05T10:03:11.677Z,97842.88
2023-05-05T10:05:47.473Z,97839.19
2023-05-05T10:08:14.260Z,97848.47
2023-05-05T10:10:54.237Z,97827.19
2023-05-05T10:13:23.052Z,97834.75
2023-05-05T10:15:51.871Z,97839.09
2023-05-05T10:18:24.220Z,97838.38
2023-05-05T10:20:59.813Z,97827.88
2023-05-05T10:23:55.494Z,97834.41
2023-05-05T10:26:23.319Z,97831.44
2023-05-05T10:29:01.525Z,97818.69
2023-05-05T10:31:41.936Z,97826.72
2023-05-05T10:34:24.339Z,97836.78
2023-05-05T10:36:51.889Z,97828.97
2023-05-05T10:39:20.166Z,97821.72
2023-05-05T10:41:48.353Z,97825.34
2023-05-05T10:44:15.437Z,97821.94
2023-05-05T10:46:42.965Z,97834.03
2023-05-05T10:49:11.682Z,97828.81
2023-05-05T10:52:01.685Z,97836.84
2023-05-05T10:54:57.685Z,97816.97
2023-05-05T10:57:27.878Z,97835.28
2023-05-05T10:59:54.524Z,97816.09
2023-05-05T11:02:28.262Z,97818.25
2023-05-05T11:05:05.894Z,97808.41
2023-05-05T11:07:34.581Z,97809.72
2023-05-05T11:10:03.080Z,97795.72
2023-05-05T11:12:31.641Z,97810.97
2023-05-05T11:15:26.237Z,97812.41
2023-05-05T11:17:57.491Z,97813.56
2023-05-05T11:20:39.762Z,97811.91
2023-05-05T11:23:06.793Z,97809.81
2023-05-05T11:25:41.924Z,97809.91
2023-05-05T11:28:12.604Z,97806.44
2023-05-05T11:30:58.080Z,97795.53
2023-05-05T11:33:39.074Z,97799.56
2023-05-05T11:36:13.828Z,97803.81
2023-05-05T11:38:59.245Z,97798.97
2023-05-05T11:41:35.365Z,97731.91
2023-05-05T11:44:19.784Z,97806.59
2023-05-05T11:46:52.514Z,97813.09
2023-05-05T11:49:32.277Z,97786.75
2023-05-05T11:52:01.115Z,97804.81
2023-05-05T11:54:28.399Z,97777.66
2023-05-05T11:56:56.687Z,97793.28
2023-05-05T11:59:23.509Z,97798.25
2023-05-05T12:01:50.649Z,97777.03
2023-05-05T12:04:18.572Z,97785.53
2023-05-05T12:06:46.419Z,97784.94
2023-05-05T12:09:22.118Z,97788.44
2023-05-05T12:11:57.399Z,97795.72
2023-05-05T12:14:25.788Z,97770.00
2023-05-05T12:17:04.521Z,97787.94
2023-05-05T12:19:33.682Z,97765.03
2023-05-05T12:22:04.834Z,97777.09
2023-05-05T12:24:31.726Z,97781.56
2023-05-05T12:27:09.326Z,97771.63
2023-05-05T12:29:36.201Z,97778.03
2023-05-05T12:32:04.221Z,97771.91
2023-05-05T12:34:31.849Z,97784.56
2023-05-05T12:36:58.783Z,97767.25
2023-05-05T12:39:35.550Z,97775.00
2023-05-05T12:42:05.623Z,97773.63
2023-05-05T12:44:36.412Z,97774.69
2023-05-05T12:47:04.116Z,97792.44
2023-05-05T12:49:34.204Z,97770.31
2023-05-05T12:52:01.276Z,97759.59
2023-05-05T12:54:31.063Z,97758.91
2023-05-05T12:56:58.742Z,97762.19
2023-05-05T12:59:25.369Z,97760.25
2023-05-05T13:01:56.728Z,97754.81
2023-05-05T13:04:25.238Z,97759.09
2023-05-05T13:07:13.212Z,97746.72
2023-05-05T13:09:40.239Z,97738.91
2023-05-05T13:12:08.790Z,97743.28
2023-05-05T13:14:36.521Z,97721.84
2023-05-05T13:17:03.230Z,97734.19
2023-05-05T13:19:30.553Z,97738.84
2023-05-05T13:21:58.790Z,97732.59
2023-05-05T13:24:38.151Z,97721.19
2023-05-05T13:27:12.861Z,97733.97
2023-05-05T13:29:40.262Z,97732.59
2023-05-05T13:32:08.216Z,97736.00
2023-05-05T13:34:35.071Z,97720.56
2023-05-05T13:37:01.776Z,97726.56
2023-05-05T13:39:28.475Z,97736.34
2023-05-05T13:41:55.259Z,97727.75
2023-05-05T13:44:22.225Z,97724.88
2023-05-05T13:46:48.968Z,97726.84
2023-05-05T13:49:15.734Z,97712.94
2023-05-05T13:51:43.033Z,97724.66
2023-05-05T13:54:09.830Z,97730.31
2023-05-05T13:56:36.836Z,97710.47
2023-05-05T13:59:03.734Z,97700.03
2023-05-05T14:01:30.889Z,97625.81
2023-05-05T14:03:58.323Z,97714.91
2023-05-05T14:06:26.181Z,97712.16
2023-05-05T14:08:53.156Z,97707.34
2023-05-05T14:11:20.931Z,97702.09
2023-05-05T14:13:48.450Z,97700.22
2023-05-05T14:16:15.712Z,97699.81
2023-05-05T14:18:42.679Z,97702.47
2023-05-05T14:21:09.701Z,97685.88
2023-05-05T14:23:36.392Z,97709.28
2023-05-05T14:26:03.342Z,97706.56
2023-05-05T14:28:31.134Z,97688.66
2023-05-05T14:30:57.909Z,97687.06
2023-05-05T14:33:24.720Z,97697.31
2023-05-05T14:35:52.140Z,97695.72
2023-05-05T14:38:18.899Z,97701.53
2023-05-05T14:40:45.911Z,97703.38
2023-05-05T14:43:12.738Z,97700.19
2023-05-05T14:45:39.635Z,97706.69
2023-05-05T14:48:06.346Z,97698.72
2023-05-05T14:50:33.124Z,97693.53
2023-05-05T14:52:59.840Z,97695.59
2023-05-05T14:55:26.777Z,97694.88
2023-05-05T14:57:53.640Z,97703.97
2023-05-05T15:00:20.659Z,97707.91
2023-05-05T15:02:48.511Z,97679.97
2023-05-05T15:05:15.459Z,97698.09
2023-05-05T15:07:42.216Z,97706.03
2023-05-05T15:10:09.452Z,97707.25
2023-05-05T15:12:36.553Z,97705.22
2023-05-05T15:15:03.508Z,97693.84
2023-05-05T15:17:31.032Z,97696.41
2023-05-05T15:19:57.954Z,97696.84
2023-05-05T15:22:27.562Z,97707.38
2023-05-05T15:24:54.204Z,97700.84
2023-05-05T15:27:20.925Z,97701.56
2023-05-05T15:29:48.681Z,97701.53
2023-05-05T15:32:15.476Z,97698.16
2023-05-05T15:34:42.279Z,97696.94
2023-05-05T15:37:09.085Z,97700.06
2023-05-05T15:39:35.835Z,97699.72
2023-05-05T15:42:05.459Z,97695.97
2023-05-05T15:44:32.116Z,97696.06
2023-05-05T15:46:58.981Z,97696.81
2023-05-05T15:49:25.798Z,97696.81
2023-05-05T15:51:52.643Z,97699.94
2023-05-05T15:54:19.481Z,97689.59
2023-05-05T15:56:46.164Z,97683.59
2023-05-05T15:59:13.020Z,97679.94
2023-05-05T16:01:39.860Z,97690.25
2023-05-05T16:04:06.769Z,97678.47
2023-05-05T16:06:33.641Z,97659.81
2023-05-05T16:09:00.630Z,97658.34
2023-05-05T16:11:27.510Z,97651.59
2023-05-05T16:13:54.305Z,97661.41
2023-05-05T16:16:24.063Z,97670.38
2023-05-05T16:18:51.007Z,97668.69
2023-05-05T16:21:17.694Z,97668.53
2023-05-05T16:23:44.389Z,97665.97
2023-05-05T16:26:11.067Z,97670.31
2023-05-05T16:28:38.861Z,97669.81
2023-05-05T16:31:05.663Z,97668.06
2023-05-05T16:33:32.596Z,97662.28
2023-05-05T16:35:59.304Z,97670.91
2023-05-05T16:38:26.076Z,97677.84
2023-05-05T16:40:52.903Z,97667.16
2023-05-05T16:43:19.858Z,97667.88
2023-05-05T16:45:46.833Z,97661.94
2023-05-05T16:48:14.924Z,97671.34
2023-05-05T16:50:41.713Z,97670.13
2023-05-05T16:53:11.749Z,97665.41
2023-05-05T16:55:38.386Z,97661.00
2023-05-05T16:58:07.976Z,97666.94
2023-05-05T17:00:34.768Z,97668.00
2023-05-05T17:03:01.466Z,97673.50
2023-05-05T17:05:28.385Z,97676.50
2023-05-05T17:07:55.134Z,97669.44
2023-05-05T17:10:21.879Z,97675.63
2023-05-05T17:12:48.606Z,97669.19
2023-05-05T17:15:15.311Z,97669.47
2023-05-05T17:17:43.221Z,97662.63
2023-05-05T17:20:10.720Z,97644.94
2023-05-05T17:22:37.534Z,97673.25
2023-05-05T17:25:05.357Z,97670.34
2023-05-05T17:27:32.183Z,97668.75
2023-05-05T17:29:59.018Z,97664.28
2023-05-05T17:32:26.010Z,97667.63
2023-05-05T17:34:52.810Z,97668.69
2023-05-05T17:37:19.499Z,97669.59
2023-05-05T17:39:49.162Z,97677.41
2023-05-05T17:42:18.901Z,97666.16
2023-05-05T17:44:47.542Z,97669.16
2023-05-05T17:47:14.439Z,97678.44
2023-05-05T17:49:41.585Z,97677.91
2023-05-05T17:52:08.364Z,97683.22
2023-05-05T17:54:35.052Z,97693.97
2023-05-05T17:57:03.098Z,97682.03
2023-05-05T17:59:31.477Z,97676.69
2023-05-05T18:01:58.141Z,97692.00
2023-05-05T18:04:25.571Z,97697.38
2023-05-05T18:06:52.662Z,97695.22
2023-05-05T18:09:20.835Z,97693.09
2023-05-05T18:11:48.293Z,97705.34
2023-05-05T18:14:14.974Z,97701.59
2023-05-05T18:16:44.066Z,97700.50
2023-05-05T18:19:10.697Z,97698.38
2023-05-05T18:21:37.372Z,97698.03
2023-05-05T18:24:18.864Z,97704.34
2023-05-05T18:26:52.011Z,97702.53
2023-05-05T18:29:20.317Z,97694.78
2023-05-05T18:31:52.134Z,97692.28
2023-05-05T18:34:20.661Z,97670.53
2023-05-05T18:36:48.492Z,97698.94
2023-05-05T18:39:15.362Z,97707.34
2023-05-05T18:41:43.318Z,97703.09
2023-05-05T18:44:10.887Z,97707.66
2023-05-05T18:46:37.559Z,97707.09
2023-05-05T18:49:04.466Z,97705.84
2023-05-05T18:51:32.337Z,97709.25
2023-05-05T18:54:01.053Z,97709.34
2023-05-05T18:56:30.959Z,97709.25
2023-05-05T18:58:57.701Z,97713.44
2023-05-05T19:01:24.419Z,97718.56
2023-05-05T19:03:51.260Z,97712.38
2023-05-05T19:06:18.035Z,97671.38
2023-05-05T19:08:45.972Z,97716.19
2023-05-05T19:11:15.277Z,97721.72
2023-05-05T19:13:42.543Z,97705.75
2023-05-05T19:16:11.353Z,97718.00
2023-05-05T19:18:38.711Z,97714.09
2023-05-05T19:21:05.965Z,97718.81
2023-05-05T19:23:33.619Z,97713.75
2023-05-05T19:26:00.398Z,97711.56
2023-05-05T19:28:27.274Z,97709.38
2023-05-05T19:30:53.990Z,97706.47
2023-05-05T19:33:20.879Z,97658.09
2023-05-05T19:35:48.936Z,97703.81
2023-05-05T19:38:17.046Z,97704.69
2023-05-05T19:40:43.766Z,97654.19
2023-05-05T19:43:10.502Z,97706.69
2023-05-05T19:45:37.343Z,97710.72
2023-05-05T19:48:04.247Z,97704.34
2023-05-05T19:50:31.911Z,97701.53
2023-05-05T19:52:58.617Z,97676.47
2023-05-05T19:55:25.869Z,97704.03
2023-05-05T19:57:52.675Z,97697.78
2023-05-05T20:00:20.014Z,97696.03
2023-05-05T20:02:48.721Z,97689.84
2023-05-05T20:05:17.557Z,97693.34
2023-05-05T20:07:46.487Z,97695.72
2023-05-05T20:10:13.621Z,97695.59
2023-05-05T20:12:47.908Z,97702.63
2023-05-05T20:15:19.859Z,97699.56
2023-05-05T20:17:49.667Z,97701.34
2023-05-05T20:20:18.987Z,97683.09
2023-05-05T20:22:47.241Z,97676.53
2023-05-05T20:25:16.148Z,97697.53
2023-05-05T20:27:42.953Z,97703.13
2023-05-05T20:30:11.020Z,97696.38
2023-05-05T20:32:38.185Z,97676.84
2023-05-05T20:35:06.274Z,97699.47
2023-05-05T20:37:33.364Z,97690.03
2023-05-05T20:40:00.105Z,97699.69
2023-05-05T20:42:28.061Z,97704.78
2023-05-05T20:44:54.887Z,97703.50
2023-05-05T20:47:21.620Z,97705.72
2023-05-05T20:49:48.253Z,97715.63
2023-05-05T20:52:14.997Z,97700.75
2023-05-05T20:54:41.695Z,97713.38
2023-05-05T20:57:08.656Z,97707.72
2023-05-05T20:59:35.409Z,97699.13
2023-05-05T21:02:02.115Z,97707.94
2023-05-05T21:04:28.827Z,97700.91
2023-05-05T21:06:56.051Z,97699.66
2023-05-05T21:09:23.497Z,97698.69
2023-05-05T21:11:50.338Z,97705.75
2023-05-05T21:14:17.048Z,97700.59
2023-05-05T21:16:43.745Z,97698.84
2023-05-05T21:19:10.456Z,97706.03
2023-05-05T21:21:37.112Z,97706.19
2023-05-05T21:24:05.499Z,97700.41
2023-05-05T21:26:33.831Z,97702.94
2023-05-05T21:29:00.467Z,97714.16
2023-05-05T21:31:27.093Z,97697.97
2023-05-05T21:33:54.438Z,97702.94
2023-05-05T21:36:21.440Z,97684.22
2023-05-05T21:38:49.756Z,97696.25
2023-05-05T21:41:16.957Z,97696.91
2023-05-05T21:43:43.802Z,97692.75
2023-05-05T21:46:10.733Z,97694.22
2023-05-05T21:48:39.156Z,97699.19
2023-05-05T21:51:06.867Z,97692.00
2023-05-05T21:53:33.638Z,97690.56
2023-05-05T21:56:00.626Z,97688.84
2023-05-05T21:58:27.417Z,97692.19
2023-05-05T22:00:54.321Z,97685.00
2023-05-05T22:03:21.479Z,97685.50
2023-05-05T22:05:48.181Z,97689.19
2023-05-05T22:08:16.102Z,97675.56
2023-05-05T22:10:42.900Z,97676.22
2023-05-05T22:13:10.803Z,97684.22
2023-05-05T22:15:46.187Z,97683.13
2023-05-05T22:18:14.499Z,97671.59
2023-05-05T22:20:41.368Z,97676.56
2023-05-05T22:23:08.220Z,97674.47
2023-05-05T22:25:35.589Z,97680.59
2023-05-05T22:28:02.436Z,97683.13
2023-05-05T22:30:29.696Z,97678.66
2023-05-05T22:32:56.534Z,97679.78
2023-05-05T22:35:23.489Z,97667.16
2023-05-05T22:37:50.348Z,97668.75
2023-05-05T22:40:17.224Z,97680.28
2023-05-05T22:42:44.116Z,97679.97
2023-05-05T22:45:11.330Z,97667.97
2023-05-05T22:47:38.441Z,97663.78
2023-05-05T22:50:05.961Z,97674.06
2023-05-05T22:52:32.623Z,97662.97
2023-05-05T22:54:59.316Z,97666.03
2023-05-05T22:57:26.023Z,97659.00
2023-05-05T22:59:52.792Z,97655.47
2023-05-05T23:02:19.462Z,97671.81
2023-05-05T23:04:46.302Z,97658.84
2023-05-05T23:07:13.501Z,97637.84
2023-05-05T23:09:41.040Z,97648.09
2023-05-05T23:12:07.981Z,97647.00
2023-05-05T23:14:35.994Z,97654.84
2023-05-05T23:17:02.732Z,97640.91
2023-05-05T23:19:32.715Z,97637.06
2023-05-05T23:21:59.998Z,97629.66
2023-05-05T23:24:27.323Z,97642.63
2023-05-05T23:26:54.446Z,97631.59
2023-05-05T23:29:21.443Z,97631.59
2023-05-05T23:31:48.388Z,97628.88
2023-05-05T23:34:15.113Z,97632.88
2023-05-05T23:36:41.831Z,97630.13
2023-05-05T23:39:08.508Z,97644.22
2023-05-05T23:41:35.310Z,97632.06
2023-05-05T23:44:01.999Z,97625.34
2023-05-05T23:46:29.492Z,97627.75
2023-05-05T23:48:56.572Z,97614.28
2023-05-05T23:51:23.380Z,97636.03
2023-05-05T23:53:50.056Z,97625.50
2023-05-05T23:56:16.766Z,97631.28
2023-05-05T23:58:43.414Z,97628.84
